sensor_id;sensor_type;location;lat;lon;timestamp;pressure;altitude;pressure_sealevel;temperature;humidity
20825;BME280;10573;50.936;6.978;2023-04-29T00:01:53;100925.63;;;14.86;68.78
20825;BME280;10573;50.936;6.978;2023-04-29T00:04:23;100928.19;;;14.80;68.71
20825;BME280;10573;50.936;6.978;2023-04-29T00:06:48;100924.44;;;14.81;68.31
20825;BME280;10573;50.936;6.978;2023-04-29T00:09:14;100932.47;;;14.74;68.52
20825;BME280;10573;50.936;6.978;2023-04-29T00:11:39;100930.63;;;14.83;67.54
20825;BME280;10573;50.936;6.978;2023-04-29T00:14:04;100932.19;;;14.93;67.31
20825;BME280;10573;50.936;6.978;2023-04-29T00:16:30;100925.50;;;15.04;67.19
20825;BME280;10573;50.936;6.978;2023-04-29T00:18:55;100923.25;;;14.83;67.48
20825;BME280;10573;50.936;6.978;2023-04-29T00:21:21;100928.59;;;15.09;66.35
20825;BME280;10573;50.936;6.978;2023-04-29T00:23:46;100928.22;;;15.46;65.31
20825;BME280;10573;50.936;6.978;2023-04-29T00:26:12;100932.69;;;15.38;65.47
20825;BME280;10573;50.936;6.978;2023-04-29T00:28:38;100940.06;;;15.05;65.44
20825;BME280;10573;50.936;6.978;2023-04-29T00:31:03;100933.72;;;15.29;64.68
20825;BME280;10573;50.936;6.978;2023-04-29T00:33:28;100938.19;;;15.30;64.94
20825;BME280;10573;50.936;6.978;2023-04-29T00:35:54;100941.47;;;15.25;64.83
20825;BME280;10573;50.936;6.978;2023-04-29T00:38:19;100944.03;;;15.35;64.57
20825;BME280;10573;50.936;6.978;2023-04-29T00:40:45;100941.06;;;14.87;64.73
20825;BME280;10573;50.936;6.978;2023-04-29T00:43:10;100949.00;;;15.15;63.47
20825;BME280;10573;50.936;6.978;2023-04-29T00:45:36;100949.13;;;14.97;63.34
20825;BME280;10573;50.936;6.978;2023-04-29T00:48:01;100961.00;;;15.06;62.78
20825;BME280;10573;50.936;6.978;2023-04-29T00:50:26;100947.94;;;15.08;63.09
20825;BME280;10573;50.936;6.978;2023-04-29T00:52:52;100952.41;;;15.01;62.64
20825;BME280;10573;50.936;6.978;2023-04-29T00:55:17;100954.00;;;14.60;63.92
20825;BME280;10573;50.936;6.978;2023-04-29T00:57:44;100958.91;;;15.00;62.44
20825;BME280;10573;50.936;6.978;2023-04-29T01:00:15;100954.13;;;15.02;61.96
20825;BME280;10573;50.936;6.978;2023-04-29T01:02:41;100951.19;;;14.87;61.58
20825;BME280;10573;50.936;6.978;2023-04-29T01:05:06;100960.81;;;14.99;62.19
20825;BME280;10573;50.936;6.978;2023-04-29T01:10:06;100966.66;;;15.29;61.27
20825;BME280;10573;50.936;6.978;2023-04-29T01:17:27;100969.69;;;14.76;62.78
20825;BME280;10573;50.936;6.978;2023-04-29T01:19:55;100970.34;;;14.70;63.30
20825;BME280;10573;50.936;6.978;2023-04-29T01:22:21;100967.84;;;14.85;62.33
20825;BME280;10573;50.936;6.978;2023-04-29T01:24:46;100972.97;;;14.88;62.70
20825;BME280;10573;50.936;6.978;2023-04-29T01:27:15;100973.81;;;14.81;62.85
20825;BME280;10573;50.936;6.978;2023-04-29T01:29:45;100981.75;;;15.08;62.28
20825;BME280;10573;50.936;6.978;2023-04-29T01:32:18;100978.47;;;14.97;62.83
20825;BME280;10573;50.936;6.978;2023-04-29T01:34:48;100988.34;;;14.73;63.60
20825;BME280;10573;50.936;6.978;2023-04-29T01:39:44;100988.22;;;14.83;63.45
20825;BME280;10573;50.936;6.978;2023-04-29T01:42:17;100992.22;;;14.62;64.40
20825;BME280;10573;50.936;6.978;2023-04-29T01:44:46;100995.75;;;14.89;64.00
20825;BME280;10573;50.936;6.978;2023-04-29T01:47:13;100994.94;;;15.13;63.62
20825;BME280;10573;50.936;6.978;2023-04-29T01:49:39;100997.00;;;14.52;64.95
20825;BME280;10573;50.936;6.978;2023-04-29T01:52:04;100995.72;;;14.72;64.68
20825;BME280;10573;50.936;6.978;2023-04-29T01:54:31;101003.13;;;14.46;65.60
20825;BME280;10573;50.936;6.978;2023-04-29T01:56:56;100998.00;;;14.42;65.39
20825;BME280;10573;50.936;6.978;2023-04-29T01:59:23;101013.06;;;14.12;66.28
20825;BME280;10573;50.936;6.978;2023-04-29T02:01:48;101008.50;;;14.21;65.72
20825;BME280;10573;50.936;6.978;2023-04-29T02:04:14;101015.38;;;14.25;65.79
20825;BME280;10573;50.936;6.978;2023-04-29T02:06:39;101010.19;;;14.22;65.79
20825;BME280;10573;50.936;6.978;2023-04-29T02:09:04;101012.84;;;14.05;65.63
20825;BME280;10573;50.936;6.978;2023-04-29T02:11:30;101020.19;;;14.31;65.33
20825;BME280;10573;50.936;6.978;2023-04-29T02:13:55;101021.88;;;14.24;65.64
20825;BME280;10573;50.936;6.978;2023-04-29T02:16:20;101018.34;;;14.05;65.72
20825;BME280;10573;50.936;6.978;2023-04-29T02:18:46;101025.00;;;13.76;66.32
20825;BME280;10573;50.936;6.978;2023-04-29T02:21:11;101021.56;;;14.01;66.24
20825;BME280;10573;50.936;6.978;2023-04-29T02:23:36;101025.06;;;13.85;66.46
20825;BME280;10573;50.936;6.978;2023-04-29T02:26:01;101025.97;;;13.93;66.27
20825;BME280;10573;50.936;6.978;2023-04-29T02:28:30;101029.47;;;13.59;67.09
20825;BME280;10573;50.936;6.978;2023-04-29T02:30:55;101033.28;;;13.85;66.40
20825;BME280;10573;50.936;6.978;2023-04-29T02:33:21;101038.63;;;13.95;66.18
20825;BME280;10573;50.936;6.978;2023-04-29T02:35:46;101038.09;;;14.17;65.59
20825;BME280;10573;50.936;6.978;2023-04-29T02:38:11;101052.72;;;14.00;65.95
20825;BME280;10573;50.936;6.978;2023-04-29T02:40:43;101041.44;;;13.58;67.57
20825;BME280;10573;50.936;6.978;2023-04-29T02:43:09;101043.50;;;13.83;67.25
20825;BME280;10573;50.936;6.978;2023-04-29T02:45:34;101043.50;;;13.83;67.82
20825;BME280;10573;50.936;6.978;2023-04-29T02:48:00;101039.50;;;13.95;67.62
20825;BME280;10573;50.936;6.978;2023-04-29T02:50:25;101043.28;;;13.94;67.77
20825;BME280;10573;50.936;6.978;2023-04-29T02:52:50;101046.53;;;13.98;67.80
20825;BME280;10573;50.936;6.978;2023-04-29T02:55:16;101053.47;;;13.84;67.76
20825;BME280;10573;50.936;6.978;2023-04-29T02:57:43;101053.34;;;13.93;67.64
20825;BME280;10573;50.936;6.978;2023-04-29T03:00:08;101053.56;;;14.00;67.29
20825;BME280;10573;50.936;6.978;2023-04-29T03:02:34;101054.03;;;14.22;66.89
20825;BME280;10573;50.936;6.978;2023-04-29T03:04:59;101058.66;;;13.95;67.67
20825;BME280;10573;50.936;6.978;2023-04-29T03:07:24;101052.44;;;13.85;68.03
20825;BME280;10573;50.936;6.978;2023-04-29T03:09:49;101054.53;;;13.91;68.03
20825;BME280;10573;50.936;6.978;2023-04-29T03:12:15;101056.09;;;13.93;68.70
20825;BME280;10573;50.936;6.978;2023-04-29T03:14:41;101054.47;;;13.83;69.08
20825;BME280;10573;50.936;6.978;2023-04-29T03:17:06;101057.25;;;13.91;69.11
20825;BME280;10573;50.936;6.978;2023-04-29T03:19:31;101055.34;;;14.09;68.86
20825;BME280;10573;50.936;6.978;2023-04-29T03:21:57;101056.13;;;14.02;69.48
20825;BME280;10573;50.936;6.978;2023-04-29T03:24:22;101057.31;;;13.99;69.34
20825;BME280;10573;50.936;6.978;2023-04-29T03:26:47;101062.97;;;13.98;68.96
20825;BME280;10573;50.936;6.978;2023-04-29T03:29:14;101059.88;;;13.74;70.48
20825;BME280;10573;50.936;6.978;2023-04-29T03:31:39;101074.28;;;13.76;70.69
20825;BME280;10573;50.936;6.978;2023-04-29T03:34:05;101063.09;;;13.52;71.58
20825;BME280;10573;50.936;6.978;2023-04-29T03:36:31;101057.25;;;13.65;71.11
20825;BME280;10573;50.936;6.978;2023-04-29T03:38:56;101067.72;;;13.69;71.61
20825;BME280;10573;50.936;6.978;2023-04-29T03:41:21;101060.19;;;13.35;72.78
20825;BME280;10573;50.936;6.978;2023-04-29T03:43:48;101067.09;;;13.39;72.38
20825;BME280;10573;50.936;6.978;2023-04-29T03:46:13;101080.53;;;13.05;74.13
20825;BME280;10573;50.936;6.978;2023-04-29T03:48:38;101079.19;;;12.91;73.61
20825;BME280;10573;50.936;6.978;2023-04-29T03:51:04;101077.06;;;13.13;73.13
20825;BME280;10573;50.936;6.978;2023-04-29T03:53:29;101082.75;;;12.73;74.96
20825;BME280;10573;50.936;6.978;2023-04-29T03:55:55;101078.78;;;12.86;74.76
20825;BME280;10573;50.936;6.978;2023-04-29T03:58:20;101078.81;;;13.04;74.39
20825;BME280;10573;50.936;6.978;2023-04-29T04:00:47;101090.19;;;12.81;74.96
20825;BME280;10573;50.936;6.978;2023-04-29T04:03:13;101098.22;;;12.55;76.16
20825;BME280;10573;50.936;6.978;2023-04-29T04:05:38;101093.47;;;12.85;75.43
20825;BME280;10573;50.936;6.978;2023-04-29T04:08:03;101099.84;;;12.48;75.29
20825;BME280;10573;50.936;6.978;2023-04-29T04:10:28;101104.31;;;12.76;74.53
20825;BME280;10573;50.936;6.978;2023-04-29T04:12:54;101101.25;;;12.52;74.43
20825;BME280;10573;50.936;6.978;2023-04-29T04:15:19;101100.00;;;12.74;73.50
20825;BME280;10573;50.936;6.978;2023-04-29T04:17:45;101108.78;;;12.78;73.20
20825;BME280;10573;50.936;6.978;2023-04-29T04:20:10;101108.53;;;12.99;72.81
20825;BME280;10573;50.936;6.978;2023-04-29T04:22:36;101110.34;;;12.80;73.26
20825;BME280;10573;50.936;6.978;2023-04-29T04:25:02;101119.59;;;12.69;73.39
20825;BME280;10573;50.936;6.978;2023-04-29T04:27:28;101114.63;;;12.55;74.01
20825;BME280;10573;50.936;6.978;2023-04-29T04:29:54;101122.47;;;12.20;75.39
20825;BME280;10573;50.936;6.978;2023-04-29T04:32:20;101127.53;;;12.05;75.67
20825;BME280;10573;50.936;6.978;2023-04-29T04:34:46;101131.78;;;12.37;74.54
20825;BME280;10573;50.936;6.978;2023-04-29T04:37:12;101134.13;;;12.22;74.50
20825;BME280;10573;50.936;6.978;2023-04-29T04:39:37;101140.13;;;12.36;74.40
20825;BME280;10573;50.936;6.978;2023-04-29T04:42:03;101131.22;;;12.44;74.49
20825;BME280;10573;50.936;6.978;2023-04-29T04:44:28;101137.38;;;12.46;74.21
20825;BME280;10573;50.936;6.978;2023-04-29T04:46:54;101145.78;;;12.62;73.46
20825;BME280;10573;50.936;6.978;2023-04-29T04:49:19;101146.56;;;12.45;73.51
20825;BME280;10573;50.936;6.978;2023-04-29T04:51:45;101157.09;;;11.71;76.11
20825;BME280;10573;50.936;6.978;2023-04-29T04:54:10;101160.28;;;11.86;75.63
20825;BME280;10573;50.936;6.978;2023-04-29T04:56:36;101154.81;;;11.86;75.59
20825;BME280;10573;50.936;6.978;2023-04-29T04:59:02;101167.31;;;12.37;74.63
20825;BME280;10573;50.936;6.978;2023-04-29T05:01:27;101164.63;;;11.98;75.39
20825;BME280;10573;50.936;6.978;2023-04-29T05:03:53;101170.06;;;12.18;75.67
20825;BME280;10573;50.936;6.978;2023-04-29T05:06:18;101177.50;;;12.35;74.59
20825;BME280;10573;50.936;6.978;2023-04-29T05:08:43;101179.09;;;12.38;74.47
20825;BME280;10573;50.936;6.978;2023-04-29T05:11:15;101180.78;;;12.49;74.05
20825;BME280;10573;50.936;6.978;2023-04-29T05:13:41;101181.81;;;12.48;73.89
20825;BME280;10573;50.936;6.978;2023-04-29T05:16:06;101188.97;;;12.58;73.53
20825;BME280;10573;50.936;6.978;2023-04-29T05:18:32;101190.56;;;12.61;73.16
20825;BME280;10573;50.936;6.978;2023-04-29T05:20:57;101186.31;;;12.29;73.83
20825;BME280;10573;50.936;6.978;2023-04-29T05:23:24;101197.63;;;12.44;73.54
20825;BME280;10573;50.936;6.978;2023-04-29T05:25:49;101201.09;;;12.36;73.44
20825;BME280;10573;50.936;6.978;2023-04-29T05:28:14;101196.63;;;12.45;73.57
20825;BME280;10573;50.936;6.978;2023-04-29T05:30:40;101203.31;;;12.80;72.07
20825;BME280;10573;50.936;6.978;2023-04-29T05:33:05;101206.25;;;12.49;72.59
20825;BME280;10573;50.936;6.978;2023-04-29T05:35:30;101204.22;;;12.61;71.88
20825;BME280;10573;50.936;6.978;2023-04-29T05:37:56;101208.03;;;12.78;71.78
20825;BME280;10573;50.936;6.978;2023-04-29T05:40:21;101208.53;;;12.54;72.45
20825;BME280;10573;50.936;6.978;2023-04-29T05:42:47;101213.56;;;12.49;72.60
20825;BME280;10573;50.936;6.978;2023-04-29T05:45:13;101211.88;;;12.28;72.85
20825;BME280;10573;50.936;6.978;2023-04-29T05:47:38;101212.44;;;12.41;71.99
20825;BME280;10573;50.936;6.978;2023-04-29T05:50:04;101216.91;;;12.42;72.72
20825;BME280;10573;50.936;6.978;2023-04-29T05:52:29;101231.16;;;12.46;72.79
20825;BME280;10573;50.936;6.978;2023-04-29T05:54:55;101232.84;;;12.67;72.51
20825;BME280;10573;50.936;6.978;2023-04-29T05:57:20;101235.28;;;12.60;71.79
20825;BME280;10573;50.936;6.978;2023-04-29T05:59:46;101231.22;;;12.84;71.49
20825;BME280;10573;50.936;6.978;2023-04-29T06:02:11;101237.03;;;12.51;72.02
20825;BME280;10573;50.936;6.978;2023-04-29T06:04:36;101239.34;;;12.56;72.15
20825;BME280;10573;50.936;6.978;2023-04-29T06:07:02;101241.38;;;12.34;72.61
20825;BME280;10573;50.936;6.978;2023-04-29T06:09:29;101244.19;;;12.62;71.99
20825;BME280;10573;50.936;6.978;2023-04-29T06:11:54;101252.00;;;12.57;72.25
20825;BME280;10573;50.936;6.978;2023-04-29T06:14:20;101254.00;;;12.55;72.30
20825;BME280;10573;50.936;6.978;2023-04-29T06:16:45;101252.56;;;12.70;71.76
20825;BME280;10573;50.936;6.978;2023-04-29T06:19:11;101259.72;;;12.71;71.59
20825;BME280;10573;50.936;6.978;2023-04-29T06:21:37;101262.44;;;12.71;71.22
20825;BME280;10573;50.936;6.978;2023-04-29T06:24:02;101275.41;;;12.79;71.23
20825;BME280;10573;50.936;6.978;2023-04-29T06:26:27;101271.41;;;12.64;71.41
20825;BME280;10573;50.936;6.978;2023-04-29T06:28:53;101277.13;;;12.80;70.78
20825;BME280;10573;50.936;6.978;2023-04-29T06:31:18;101280.47;;;12.64;70.93
20825;BME280;10573;50.936;6.978;2023-04-29T06:33:44;101283.91;;;12.66;70.97
20825;BME280;10573;50.936;6.978;2023-04-29T06:36:10;101292.09;;;12.66;70.70
20825;BME280;10573;50.936;6.978;2023-04-29T06:38:36;101284.19;;;12.63;70.88
20825;BME280;10573;50.936;6.978;2023-04-29T06:41:01;101292.66;;;12.80;70.36
20825;BME280;10573;50.936;6.978;2023-04-29T06:43:27;101287.91;;;12.82;70.03
20825;BME280;10573;50.936;6.978;2023-04-29T06:45:52;101293.38;;;12.82;70.17
20825;BME280;10573;50.936;6.978;2023-04-29T06:48:17;101299.56;;;12.93;69.69
20825;BME280;10573;50.936;6.978;2023-04-29T06:50:53;101301.47;;;13.21;69.39
20825;BME280;10573;50.936;6.978;2023-04-29T06:53:19;101300.09;;;13.07;69.78
20825;BME280;10573;50.936;6.978;2023-04-29T06:55:44;101307.19;;;12.90;69.54
20825;BME280;10573;50.936;6.978;2023-04-29T06:58:16;101313.13;;;13.33;68.56
20825;BME280;10573;50.936;6.978;2023-04-29T07:00:47;101319.41;;;12.96;69.44
20825;BME280;10573;50.936;6.978;2023-04-29T07:03:14;101320.16;;;12.88;69.91
20825;BME280;10573;50.936;6.978;2023-04-29T07:05:39;101318.97;;;13.00;69.53
20825;BME280;10573;50.936;6.978;2023-04-29T07:08:06;101326.44;;;12.98;69.58
20825;BME280;10573;50.936;6.978;2023-04-29T07:10:31;101322.16;;;12.86;69.06
20825;BME280;10573;50.936;6.978;2023-04-29T07:12:57;101324.38;;;13.20;68.24
20825;BME280;10573;50.936;6.978;2023-04-29T07:15:23;101326.94;;;13.31;67.95
20825;BME280;10573;50.936;6.978;2023-04-29T07:17:48;101334.16;;;13.42;66.91
20825;BME280;10573;50.936;6.978;2023-04-29T07:20:14;101346.69;;;13.25;68.15
20825;BME280;10573;50.936;6.978;2023-04-29T07:22:39;101343.72;;;13.08;68.36
20825;BME280;10573;50.936;6.978;2023-04-29T07:25:04;101345.63;;;13.55;67.28
20825;BME280;10573;50.936;6.978;2023-04-29T07:27:31;101348.63;;;13.62;67.57
20825;BME280;10573;50.936;6.978;2023-04-29T07:29:58;101352.47;;;13.41;66.78
20825;BME280;10573;50.936;6.978;2023-04-29T07:32:24;101357.56;;;13.92;65.83
20825;BME280;10573;50.936;6.978;2023-04-29T07:34:49;101353.97;;;13.91;65.71
20825;BME280;10573;50.936;6.978;2023-04-29T07:37:16;101363.16;;;13.72;65.63
20825;BME280;10573;50.936;6.978;2023-04-29T07:39:41;101366.66;;;13.55;65.95
20825;BME280;10573;50.936;6.978;2023-04-29T07:42:07;101367.81;;;13.90;65.66
20825;BME280;10573;50.936;6.978;2023-04-29T07:44:32;101367.59;;;14.01;64.89
20825;BME280;10573;50.936;6.978;2023-04-29T07:46:57;101363.53;;;13.50;66.04
20825;BME280;10573;50.936;6.978;2023-04-29T07:49:23;101366.69;;;13.83;65.61
20825;BME280;10573;50.936;6.978;2023-04-29T07:51:50;101362.34;;;13.90;65.54
20825;BME280;10573;50.936;6.978;2023-04-29T07:54:15;101369.13;;;13.86;65.87
20825;BME280;10573;50.936;6.978;2023-04-29T07:56:40;101370.72;;;13.79;66.08
20825;BME280;10573;50.936;6.978;2023-04-29T07:59:06;101376.38;;;13.77;65.96
20825;BME280;10573;50.936;6.978;2023-04-29T08:01:31;101373.31;;;13.52;66.49
20825;BME280;10573;50.936;6.978;2023-04-29T08:03:57;101375.00;;;13.63;65.96
20825;BME280;10573;50.936;6.978;2023-04-29T08:06:22;101373.53;;;13.69;65.65
20825;BME280;10573;50.936;6.978;2023-04-29T08:08:47;101376.06;;;13.33;65.76
20825;BME280;10573;50.936;6.978;2023-04-29T08:11:16;101383.78;;;13.57;65.87
20825;BME280;10573;50.936;6.978;2023-04-29T08:13:42;101388.91;;;13.13;66.12
20825;BME280;10573;50.936;6.978;2023-04-29T08:16:07;101385.47;;;12.91;67.59
20825;BME280;10573;50.936;6.978;2023-04-29T08:18:33;101393.16;;;13.54;66.31
20825;BME280;10573;50.936;6.978;2023-04-29T08:20:58;101391.94;;;13.76;64.55
20825;BME280;10573;50.936;6.978;2023-04-29T08:23:24;101401.69;;;13.89;63.68
20825;BME280;10573;50.936;6.978;2023-04-29T08:25:49;101395.16;;;13.62;64.76
20825;BME280;10573;50.936;6.978;2023-04-29T08:28:16;101399.81;;;13.52;65.22
20825;BME280;10573;50.936;6.978;2023-04-29T08:30:41;101404.06;;;13.64;65.25
20825;BME280;10573;50.936;6.978;2023-04-29T08:33:07;101400.72;;;13.03;66.85
20825;BME280;10573;50.936;6.978;2023-04-29T08:35:32;101402.72;;;13.21;66.87
20825;BME280;10573;50.936;6.978;2023-04-29T08:37:57;101399.84;;;13.13;66.33
20825;BME280;10573;50.936;6.978;2023-04-29T08:40:23;101410.19;;;13.48;64.74
20825;BME280;10573;50.936;6.978;2023-04-29T08:42:48;101411.91;;;13.87;63.74
20825;BME280;10573;50.936;6.978;2023-04-29T08:45:14;101416.66;;;13.95;63.75
20825;BME280;10573;50.936;6.978;2023-04-29T08:47:44;101427.13;;;13.71;63.08
20825;BME280;10573;50.936;6.978;2023-04-29T08:50:09;101419.88;;;13.90;62.66
20825;BME280;10573;50.936;6.978;2023-04-29T08:52:35;101426.03;;;13.92;62.08
20825;BME280;10573;50.936;6.978;2023-04-29T08:55:01;101425.63;;;14.42;61.35
20825;BME280;10573;50.936;6.978;2023-04-29T08:57:28;101436.19;;;14.65;60.55
20825;BME280;10573;50.936;6.978;2023-04-29T08:59:54;101435.97;;;14.49;60.25
20825;BME280;10573;50.936;6.978;2023-04-29T09:02:19;101431.47;;;14.75;59.70
20825;BME280;10573;50.936;6.978;2023-04-29T09:07:10;101443.63;;;14.73;58.62
20825;BME280;10573;50.936;6.978;2023-04-29T09:09:37;101437.22;;;14.64;58.94
20825;BME280;10573;50.936;6.978;2023-04-29T09:12:03;101449.69;;;14.76;58.70
20825;BME280;10573;50.936;6.978;2023-04-29T09:14:29;101431.00;;;14.98;58.16
20825;BME280;10573;50.936;6.978;2023-04-29T09:16:57;101440.91;;;14.91;57.87
20825;BME280;10573;50.936;6.978;2023-04-29T09:19:33;101442.84;;;14.81;58.00
20825;BME280;10573;50.936;6.978;2023-04-29T09:22:00;101448.03;;;14.66;58.42
20825;BME280;10573;50.936;6.978;2023-04-29T09:24:26;101451.25;;;14.51;59.84
20825;BME280;10573;50.936;6.978;2023-04-29T09:26:51;101453.91;;;14.71;59.14
20825;BME280;10573;50.936;6.978;2023-04-29T09:29:17;101453.34;;;14.39;59.97
20825;BME280;10573;50.936;6.978;2023-04-29T09:31:42;101452.97;;;14.52;59.56
20825;BME280;10573;50.936;6.978;2023-04-29T09:34:08;101459.97;;;14.74;59.22
20825;BME280;10573;50.936;6.978;2023-04-29T09:39:02;101453.69;;;15.00;58.66
20825;BME280;10573;50.936;6.978;2023-04-29T09:41:30;101457.22;;;14.74;58.27
20825;BME280;10573;50.936;6.978;2023-04-29T09:44:02;101455.16;;;15.13;57.74
20825;BME280;10573;50.936;6.978;2023-04-29T09:46:29;101462.78;;;14.27;59.99
20825;BME280;10573;50.936;6.978;2023-04-29T09:48:54;101462.84;;;13.80;61.44
20825;BME280;10573;50.936;6.978;2023-04-29T09:51:21;101468.47;;;14.16;60.69
20825;BME280;10573;50.936;6.978;2023-04-29T09:53:46;101471.72;;;14.01;60.89
20825;BME280;10573;50.936;6.978;2023-04-29T09:56:12;101474.53;;;13.72;61.74
20825;BME280;10573;50.936;6.978;2023-04-29T09:58:37;101488.09;;;14.21;61.26
20825;BME280;10573;50.936;6.978;2023-04-29T10:01:03;101492.53;;;14.22;60.79
20825;BME280;10573;50.936;6.978;2023-04-29T10:03:32;101489.06;;;13.82;61.83
20825;BME280;10573;50.936;6.978;2023-04-29T10:06:01;101487.03;;;14.22;60.88
20825;BME280;10573;50.936;6.978;2023-04-29T10:08:28;101486.03;;;14.23;60.60
20825;BME280;10573;50.936;6.978;2023-04-29T10:10:53;101487.38;;;12.93;63.55
20825;BME280;10573;50.936;6.978;2023-04-29T10:13:24;101488.25;;;14.09;61.27
20825;BME280;10573;50.936;6.978;2023-04-29T10:16:07;101494.94;;;13.97;61.61
20825;BME280;10573;50.936;6.978;2023-04-29T10:18:35;101496.63;;;14.08;61.48
20825;BME280;10573;50.936;6.978;2023-04-29T10:21:02;101501.53;;;13.57;62.23
20825;BME280;10573;50.936;6.978;2023-04-29T10:23:28;101498.38;;;13.42;63.05
20825;BME280;10573;50.936;6.978;2023-04-29T10:25:54;101495.94;;;13.96;61.99
20825;BME280;10573;50.936;6.978;2023-04-29T10:28:20;101498.66;;;13.49;63.05
20825;BME280;10573;50.936;6.978;2023-04-29T10:30:49;101501.78;;;14.21;62.03
20825;BME280;10573;50.936;6.978;2023-04-29T10:33:15;101505.47;;;13.92;62.40
20825;BME280;10573;50.936;6.978;2023-04-29T10:35:44;101507.72;;;13.49;63.31
20825;BME280;10573;50.936;6.978;2023-04-29T10:38:16;101508.25;;;13.82;62.72
20825;BME280;10573;50.936;6.978;2023-04-29T10:40:45;101509.38;;;14.27;61.77
20825;BME280;10573;50.936;6.978;2023-04-29T10:43:11;101513.28;;;13.87;63.30
20825;BME280;10573;50.936;6.978;2023-04-29T10:45:37;101519.38;;;13.61;64.23
20825;BME280;10573;50.936;6.978;2023-04-29T10:53:03;101520.53;;;13.58;64.14
20825;BME280;10573;50.936;6.978;2023-04-29T10:55:29;101515.16;;;13.86;64.34
20825;BME280;10573;50.936;6.978;2023-04-29T10:57:55;101517.50;;;13.71;64.72
20825;BME280;10573;50.936;6.978;2023-04-29T11:00:26;101518.97;;;13.46;65.63
20825;BME280;10573;50.936;6.978;2023-04-29T11:02:52;101534.63;;;13.83;64.42
20825;BME280;10573;50.936;6.978;2023-04-29T11:05:18;101540.13;;;13.15;66.84
20825;BME280;10573;50.936;6.978;2023-04-29T11:08:07;101538.34;;;12.94;67.51
20825;BME280;10573;50.936;6.978;2023-04-29T11:10:36;101547.59;;;13.03;66.96
20825;BME280;10573;50.936;6.978;2023-04-29T11:13:21;101544.88;;;12.62;68.13
20825;BME280;10573;50.936;6.978;2023-04-29T11:15:47;101549.53;;;12.71;67.55
20825;BME280;10573;50.936;6.978;2023-04-29T11:18:12;101542.81;;;12.85;67.68
20825;BME280;10573;50.936;6.978;2023-04-29T11:23:23;101543.66;;;12.86;67.97
20825;BME280;10573;50.936;6.978;2023-04-29T11:25:49;101539.69;;;12.49;69.01
20825;BME280;10573;50.936;6.978;2023-04-29T11:28:14;101538.88;;;12.68;68.43
20825;BME280;10573;50.936;6.978;2023-04-29T11:30:40;101542.41;;;13.09;67.24
20825;BME280;10573;50.936;6.978;2023-04-29T11:33:07;101541.81;;;12.96;67.33
20825;BME280;10573;50.936;6.978;2023-04-29T11:35:32;101539.53;;;13.31;66.80
20825;BME280;10573;50.936;6.978;2023-04-29T11:37:58;101540.38;;;12.92;67.64
20825;BME280;10573;50.936;6.978;2023-04-29T11:40:24;101548.38;;;12.64;68.83
20825;BME280;10573;50.936;6.978;2023-04-29T11:42:49;101541.63;;;12.78;68.00
20825;BME280;10573;50.936;6.978;2023-04-29T11:45:18;101546.84;;;13.10;67.63
20825;BME280;10573;50.936;6.978;2023-04-29T11:47:44;101547.31;;;13.35;66.65
20825;BME280;10573;50.936;6.978;2023-04-29T11:50:10;101546.34;;;13.36;66.49
20825;BME280;10573;50.936;6.978;2023-04-29T11:52:36;101544.16;;;13.79;65.00
20825;BME280;10573;50.936;6.978;2023-04-29T11:55:02;101547.34;;;13.55;65.65
20825;BME280;10573;50.936;6.978;2023-04-29T11:57:28;101553.94;;;13.23;66.12
20825;BME280;10573;50.936;6.978;2023-04-29T11:59:53;101558.00;;;13.38;66.00
20825;BME280;10573;50.936;6.978;2023-04-29T12:02:37;101553.69;;;13.46;66.25
20825;BME280;10573;50.936;6.978;2023-04-29T12:05:06;101550.81;;;13.57;65.12
20825;BME280;10573;50.936;6.978;2023-04-29T12:07:32;101551.66;;;13.77;64.77
20825;BME280;10573;50.936;6.978;2023-04-29T12:09:58;101552.09;;;13.53;65.42
20825;BME280;10573;50.936;6.978;2023-04-29T12:12:24;101562.59;;;13.57;65.72
20825;BME280;10573;50.936;6.978;2023-04-29T12:14:51;101552.53;;;13.58;66.10
20825;BME280;10573;50.936;6.978;2023-04-29T12:17:17;101550.78;;;13.76;65.43
20825;BME280;10573;50.936;6.978;2023-04-29T12:19:42;101553.63;;;13.95;64.49
20825;BME280;10573;50.936;6.978;2023-04-29T12:22:08;101559.16;;;13.65;65.31
20825;BME280;10573;50.936;6.978;2023-04-29T12:24:37;101557.38;;;13.93;64.51
20825;BME280;10573;50.936;6.978;2023-04-29T12:27:03;101558.81;;;13.98;64.25
20825;BME280;10573;50.936;6.978;2023-04-29T12:29:31;101559.06;;;14.04;63.78
20825;BME280;10573;50.936;6.978;2023-04-29T12:31:57;101560.91;;;14.61;62.39
20825;BME280;10573;50.936;6.978;2023-04-29T12:34:29;101559.44;;;14.57;62.53
20825;BME280;10573;50.936;6.978;2023-04-29T12:36:55;101553.94;;;14.94;61.19
20825;BME280;10573;50.936;6.978;2023-04-29T12:39:22;101564.41;;;14.06;63.08
20825;BME280;10573;50.936;6.978;2023-04-29T12:41:47;101566.06;;;13.59;64.70
20825;BME280;10573;50.936;6.978;2023-04-29T12:44:12;101561.13;;;14.02;63.90
20825;BME280;10573;50.936;6.978;2023-04-29T12:46:38;101564.19;;;14.27;63.70
20825;BME280;10573;50.936;6.978;2023-04-29T12:49:04;101559.66;;;14.08;63.29
20825;BME280;10573;50.936;6.978;2023-04-29T12:51:33;101567.13;;;14.16;63.65
20825;BME280;10573;50.936;6.978;2023-04-29T12:54:00;101562.00;;;13.93;63.60
20825;BME280;10573;50.936;6.978;2023-04-29T12:56:28;101564.56;;;14.04;63.45
20825;BME280;10573;50.936;6.978;2023-04-29T12:58:53;101570.09;;;13.65;64.15
20825;BME280;10573;50.936;6.978;2023-04-29T13:01:18;101565.97;;;14.08;63.00
20825;BME280;10573;50.936;6.978;2023-04-29T13:03:44;101567.56;;;14.86;61.51
20825;BME280;10573;50.936;6.978;2023-04-29T13:06:09;101564.34;;;15.19;60.60
20825;BME280;10573;50.936;6.978;2023-04-29T13:08:34;101571.97;;;14.97;59.98